createdAt,value
2017-12-11T00:01:11.087Z,92.00
2017-12-11T00:03:41.455Z,91.90
2017-12-11T00:06:13.487Z,93.80
2017-12-11T00:08:41.027Z,93.70
2017-12-11T00:11:25.182Z,92.10
2017-12-11T00:13:53.561Z,92.00
2017-12-11T00:16:22.386Z,93.20
2017-12-11T00:18:50.851Z,93.20
2017-12-11T00:21:24.024Z,93.50
2017-12-11T00:23:52.940Z,93.50
2017-12-11T00:26:21.845Z,93.90
2017-12-11T00:28:52.170Z,93.30
2017-12-11T00:31:22.557Z,93.50
2017-12-11T00:33:50.864Z,93.90
2017-12-11T00:36:18.488Z,93.90
2017-12-11T00:38:46.022Z,94.30
2017-12-11T00:41:13.589Z,94.40
2017-12-11T00:43:41.153Z,95.10
2017-12-11T00:46:08.680Z,94.70
2017-12-11T00:48:36.251Z,94.90
2017-12-11T00:51:03.859Z,94.90
2017-12-11T00:53:32.219Z,95.40
2017-12-11T00:55:59.775Z,95.30
2017-12-11T00:58:27.340Z,95.30
2017-12-11T01:00:54.868Z,95.60
2017-12-11T01:03:23.209Z,96.40
2017-12-11T01:05:50.758Z,96.40
2017-12-11T01:08:18.340Z,96.70
2017-12-11T01:10:45.872Z,96.50
2017-12-11T01:13:14.215Z,96.40
2017-12-11T01:15:41.751Z,96.30
2017-12-11T01:18:10.099Z,96.70
2017-12-11T01:20:37.626Z,96.70
2017-12-11T01:23:05.222Z,97.00
2017-12-11T01:25:32.746Z,96.80
2017-12-11T01:28:00.303Z,97.00
2017-12-11T01:30:27.868Z,97.00
2017-12-11T01:32:55.401Z,96.80
2017-12-11T01:35:22.988Z,96.90
2017-12-11T01:37:50.519Z,97.00
2017-12-11T01:40:18.876Z,97.40
2017-12-11T01:42:46.408Z,97.30
2017-12-11T01:45:14.083Z,97.40
2017-12-11T01:47:43.852Z,97.50
2017-12-11T01:50:11.739Z,97.60
2017-12-11T01:52:40.153Z,97.60
2017-12-11T01:55:09.444Z,97.70
2017-12-11T01:57:38.019Z,97.70
2017-12-11T02:00:08.915Z,97.80
2017-12-11T02:02:38.873Z,97.80
2017-12-11T02:05:06.440Z,97.80
2017-12-11T02:07:33.974Z,97.80
2017-12-11T02:10:04.514Z,97.70
2017-12-11T02:12:33.417Z,97.80
2017-12-11T02:15:02.898Z,97.70
2017-12-11T02:17:39.567Z,97.90
2017-12-11T02:20:09.223Z,97.40
2017-12-11T02:22:38.331Z,97.70
2017-12-11T02:25:06.697Z,97.90
2017-12-11T02:27:34.223Z,98.40
2017-12-11T02:30:02.964Z,98.20
2017-12-11T02:32:31.495Z,98.20
2017-12-11T02:35:00.597Z,98.50
2017-12-11T02:37:28.918Z,98.60
2017-12-11T02:40:00.241Z,98.70
2017-12-11T02:42:27.810Z,99.00
2017-12-11T02:44:58.176Z,98.80
2017-12-11T02:47:26.689Z,99.10
2017-12-11T02:49:55.237Z,99.00
2017-12-11T02:52:25.359Z,99.20
2017-12-11T02:54:54.150Z,99.40
2017-12-11T03:00:05.852Z,99.40
2017-12-11T03:02:33.400Z,99.30
2017-12-11T03:05:02.714Z,99.30
2017-12-11T03:07:32.296Z,99.20
2017-12-11T03:10:00.707Z,99.20
2017-12-11T03:12:31.000Z,99.30
2017-12-11T03:14:59.422Z,99.00
2017-12-11T03:17:29.071Z,99.00
2017-12-11T03:19:58.333Z,99.20
2017-12-11T03:22:30.035Z,99.10
2017-12-11T03:24:58.786Z,99.50
2017-12-11T03:27:27.303Z,99.30
2017-12-11T03:29:59.784Z,99.50
2017-12-11T03:32:30.775Z,99.40
2017-12-11T03:34:59.169Z,99.60
2017-12-11T03:37:27.643Z,99.40
2017-12-11T03:39:57.555Z,99.30
2017-12-11T03:42:26.576Z,99.30
2017-12-11T03:44:55.226Z,99.40
2017-12-11T03:47:26.522Z,99.40
2017-12-11T03:49:56.811Z,99.20
2017-12-11T03:52:24.356Z,99.00
2017-12-11T03:54:54.766Z,99.10
2017-12-11T03:57:23.165Z,99.50
2017-12-11T03:59:50.755Z,99.20
2017-12-11T04:02:22.080Z,99.40
2017-12-11T04:04:50.412Z,99.40
2017-12-11T04:07:22.195Z,99.40
2017-12-11T04:09:52.125Z,99.30
2017-12-11T04:12:19.724Z,99.10
2017-12-11T04:14:48.624Z,99.30
2017-12-11T04:17:16.818Z,99.70
2017-12-11T04:19:47.125Z,99.60
2017-12-11T04:22:15.421Z,99.60
2017-12-11T04:24:43.853Z,99.80
2017-12-11T04:27:11.496Z,99.50
2017-12-11T04:29:41.696Z,99.40
2017-12-11T04:32:12.041Z,99.50
2017-12-11T04:34:41.274Z,99.00
2017-12-11T04:37:11.027Z,99.00
2017-12-11T04:39:42.816Z,98.80
2017-12-11T04:42:15.984Z,99.20
2017-12-11T04:44:48.026Z,99.30
2017-12-11T04:47:17.929Z,99.10
2017-12-11T04:49:46.471Z,99.10
2017-12-11T04:52:20.879Z,99.20
2017-12-11T04:54:53.552Z,99.20
2017-12-11T04:57:25.046Z,99.20
2017-12-11T04:59:54.224Z,99.50
2017-12-11T05:02:22.614Z,99.40
2017-12-11T05:04:52.744Z,99.70
2017-12-11T05:07:31.833Z,99.70
2017-12-11T05:10:03.889Z,99.80
2017-12-11T05:12:34.042Z,99.80
2017-12-11T05:15:04.138Z,99.90
2017-12-11T05:17:33.363Z,99.90
2017-12-11T05:20:01.460Z,99.70
2017-12-11T05:22:33.604Z,99.90
2017-12-11T05:25:03.149Z,99.90
2017-12-11T05:27:33.972Z,99.90
2017-12-11T05:30:07.191Z,99.80
2017-12-11T05:32:35.601Z,99.70
2017-12-11T05:35:03.182Z,99.90
2017-12-11T05:37:36.468Z,99.90
2017-12-11T05:40:05.405Z,99.90
2017-12-11T05:42:38.501Z,99.90
2017-12-11T05:45:06.082Z,99.90
2017-12-11T05:47:35.352Z,99.70
2017-12-11T05:50:04.531Z,99.70
2017-12-11T05:52:32.064Z,99.80
2017-12-11T05:55:04.596Z,99.70
2017-12-11T05:57:36.467Z,99.90
2017-12-11T06:00:06.557Z,99.90
2017-12-11T06:02:35.800Z,99.90
2017-12-11T06:05:04.923Z,99.90
2017-12-11T06:07:33.406Z,99.90
2017-12-11T06:10:04.214Z,99.90
2017-12-11T06:12:31.761Z,99.90
2017-12-11T06:15:01.579Z,99.90
2017-12-11T06:17:32.773Z,99.90
2017-12-11T06:20:03.700Z,99.90
2017-12-11T06:22:32.892Z,99.90
2017-12-11T06:25:01.369Z,99.90
2017-12-11T06:27:31.069Z,99.90
2017-12-11T06:29:59.389Z,99.90
2017-12-11T06:32:27.958Z,99.90
2017-12-11T06:34:57.249Z,99.90
2017-12-11T06:37:25.022Z,99.90
2017-12-11T06:39:54.585Z,99.90
2017-12-11T06:42:22.130Z,99.90
2017-12-11T06:44:49.714Z,99.90
2017-12-11T06:47:18.061Z,99.90
2017-12-11T06:49:46.666Z,99.90
2017-12-11T06:52:17.010Z,99.90
2017-12-11T06:54:44.552Z,99.90
2017-12-11T06:57:18.186Z,99.90
2017-12-11T06:59:47.608Z,99.90
2017-12-11T07:02:16.993Z,99.90
2017-12-11T07:04:47.602Z,99.90
2017-12-11T07:07:15.973Z,99.90
2017-12-11T07:09:46.214Z,99.90
2017-12-11T07:12:13.847Z,99.90
2017-12-11T07:14:41.430Z,99.90
2017-12-11T07:17:09.672Z,99.90
2017-12-11T07:19:39.203Z,99.90
2017-12-11T07:22:08.309Z,99.90
2017-12-11T07:24:38.412Z,99.90
2017-12-11T07:27:12.748Z,99.90
2017-12-11T07:29:43.843Z,99.90
2017-12-11T07:32:12.971Z,99.90
2017-12-11T07:34:49.819Z,99.90
2017-12-11T07:37:23.336Z,99.90
2017-12-11T07:39:51.520Z,99.90
2017-12-11T07:42:19.949Z,99.90
2017-12-11T07:44:49.846Z,99.90
2017-12-11T07:47:32.035Z,99.90
2017-12-11T07:50:00.138Z,99.90
2017-12-11T07:52:32.012Z,99.90
2017-12-11T07:55:02.658Z,99.90
2017-12-11T07:57:32.579Z,99.90
2017-12-11T08:00:12.745Z,99.90
2017-12-11T08:02:43.687Z,99.90
2017-12-11T08:05:13.701Z,99.90
2017-12-11T08:07:43.921Z,99.90
2017-12-11T08:10:12.315Z,99.90
2017-12-11T08:12:42.432Z,99.90
2017-12-11T08:15:13.972Z,99.90
2017-12-11T08:17:42.412Z,99.90
2017-12-11T08:20:11.356Z,99.90
2017-12-11T08:22:39.909Z,99.90
2017-12-11T08:25:08.304Z,99.90
2017-12-11T08:27:36.828Z,99.90
2017-12-11T08:30:05.861Z,99.90
2017-12-11T08:32:37.228Z,99.90
2017-12-11T08:35:05.475Z,99.90
2017-12-11T08:37:34.003Z,99.90
2017-12-11T08:40:12.698Z,99.90
2017-12-11T08:42:41.687Z,99.90
2017-12-11T08:48:15.179Z,99.90
2017-12-11T08:50:52.319Z,99.90
2017-12-11T08:59:29.923Z,99.90
2017-12-11T09:02:01.208Z,99.90
2017-12-11T09:07:31.644Z,99.90
2017-12-11T09:10:12.390Z,99.90
2017-12-11T09:15:29.375Z,99.90
2017-12-11T09:18:04.315Z,99.90
2017-12-11T09:28:38.511Z,99.90
2017-12-11T09:31:10.442Z,99.90
2017-12-11T09:33:40.877Z,99.90
2017-12-11T09:36:13.383Z,99.90
2017-12-11T09:38:43.899Z,99.90
2017-12-11T09:41:14.201Z,99.90
2017-12-11T09:43:43.512Z,99.90
2017-12-11T09:46:22.329Z,99.90
2017-12-11T09:48:53.497Z,99.90
2017-12-11T09:51:21.986Z,99.90
2017-12-11T09:53:51.500Z,99.90
2017-12-11T09:56:24.354Z,99.90
2017-12-11T09:58:52.648Z,99.90
2017-12-11T10:01:22.721Z,99.90
2017-12-11T10:03:51.348Z,99.90
2017-12-11T10:06:19.814Z,99.90
2017-12-11T10:08:49.089Z,99.90
2017-12-11T10:11:18.883Z,99.90
2017-12-11T10:13:46.590Z,99.90
2017-12-11T10:16:16.384Z,99.90
2017-12-11T10:18:44.801Z,99.90
2017-12-11T10:21:13.291Z,99.90
2017-12-11T10:23:40.890Z,99.90
2017-12-11T10:26:10.041Z,99.90
2017-12-11T10:28:39.360Z,99.90
2017-12-11T10:31:09.845Z,99.90
2017-12-11T10:33:38.959Z,99.90
2017-12-11T10:36:08.521Z,99.90
2017-12-11T10:38:42.351Z,99.90
2017-12-11T10:41:12.165Z,99.90
2017-12-11T10:43:41.868Z,99.90
2017-12-11T10:46:10.191Z,99.90
2017-12-11T10:48:39.468Z,99.90
2017-12-11T10:51:11.757Z,99.90
2017-12-11T10:53:43.274Z,99.90
2017-12-11T10:56:11.675Z,99.90
2017-12-11T10:58:40.243Z,99.90
2017-12-11T11:01:09.808Z,99.90
2017-12-11T11:03:40.229Z,99.90
2017-12-11T11:06:12.336Z,99.90
2017-12-11T11:08:42.107Z,99.90
2017-12-11T11:11:11.299Z,99.90
2017-12-11T11:13:40.203Z,99.90
2017-12-11T11:16:08.631Z,99.90
2017-12-11T11:18:40.609Z,99.90
2017-12-11T11:21:08.149Z,99.90
2017-12-11T11:23:35.728Z,99.90
2017-12-11T11:26:04.271Z,99.90
2017-12-11T11:28:35.102Z,99.90
2017-12-11T11:31:04.531Z,99.90
2017-12-11T11:33:33.130Z,99.90
2017-12-11T11:36:03.755Z,99.90
2017-12-11T11:38:32.469Z,99.90
2017-12-11T11:41:09.381Z,99.90
2017-12-11T11:43:41.427Z,99.90
2017-12-11T11:46:13.359Z,99.90
2017-12-11T11:48:42.528Z,99.90
2017-12-11T11:51:11.209Z,99.90
2017-12-11T11:53:42.081Z,99.90
2017-12-11T11:56:10.944Z,99.90
2017-12-11T11:58:46.615Z,99.90
2017-12-11T12:01:16.252Z,99.90
2017-12-11T12:03:46.324Z,99.90
2017-12-11T12:06:17.466Z,99.90
2017-12-11T12:08:47.900Z,99.90
2017-12-11T12:11:20.301Z,99.90
2017-12-11T12:13:49.042Z,99.90
2017-12-11T12:16:18.810Z,99.90
2017-12-11T12:18:47.325Z,99.90
2017-12-11T12:21:15.641Z,99.90
2017-12-11T12:24:16.553Z,99.90
2017-12-11T12:26:49.151Z,99.90
2017-12-11T12:29:22.848Z,99.90
2017-12-11T12:34:33.881Z,99.90
2017-12-11T12:37:07.652Z,99.90
2017-12-11T12:39:39.209Z,98.10
2017-12-11T12:42:12.983Z,98.20
2017-12-11T12:44:43.353Z,98.20
2017-12-11T12:47:15.652Z,97.80
2017-12-11T12:49:44.807Z,97.70
2017-12-11T12:52:18.015Z,97.50
2017-12-11T12:57:49.140Z,95.80
2017-12-11T13:00:16.715Z,95.70
2017-12-11T13:02:45.447Z,96.20
2017-12-11T13:05:14.002Z,96.10
2017-12-11T13:07:42.256Z,96.00
2017-12-11T13:10:12.025Z,95.60
2017-12-11T13:12:39.552Z,95.60
2017-12-11T13:15:07.903Z,95.30
2017-12-11T13:17:35.540Z,95.20
2017-12-11T13:20:03.797Z,95.20
2017-12-11T13:22:31.377Z,95.40
2017-12-11T13:25:00.406Z,95.70
2017-12-11T13:27:28.059Z,95.70
2017-12-11T13:29:56.389Z,95.80
2017-12-11T13:32:24.044Z,95.80
2017-12-11T13:34:51.585Z,95.30
2017-12-11T13:37:19.182Z,96.00
2017-12-11T13:39:47.502Z,96.40
2017-12-11T13:42:15.092Z,96.40
2017-12-11T13:44:43.535Z,96.30
2017-12-11T13:47:11.881Z,97.00
2017-12-11T13:49:39.404Z,96.90
2017-12-11T13:52:06.973Z,97.20
2017-12-11T13:54:35.263Z,96.00
2017-12-11T13:57:04.184Z,96.00
2017-12-11T13:59:31.751Z,96.20
2017-12-11T14:02:00.281Z,95.80
2017-12-11T14:04:27.844Z,96.10
2017-12-11T14:06:55.757Z,95.70
2017-12-11T14:09:23.330Z,95.40
2017-12-11T14:11:51.729Z,95.40
2017-12-11T14:14:19.871Z,95.40
2017-12-11T14:16:48.828Z,96.00
2017-12-11T14:19:17.140Z,95.90
2017-12-11T14:21:45.478Z,95.60
2017-12-11T14:24:13.542Z,95.60
2017-12-11T14:26:42.347Z,95.50
2017-12-11T14:29:09.878Z,96.30
2017-12-11T14:31:38.212Z,97.60
2017-12-11T14:34:05.739Z,97.40
2017-12-11T14:36:33.307Z,96.70
2017-12-11T14:39:01.401Z,97.00
2017-12-11T14:41:29.867Z,96.80
2017-12-11T14:43:58.628Z,96.20
2017-12-11T14:46:26.302Z,95.40
2017-12-11T14:48:53.873Z,95.60
2017-12-11T14:51:21.463Z,95.60
2017-12-11T14:53:49.011Z,95.20
2017-12-11T14:56:16.599Z,95.50
2017-12-11T14:58:44.160Z,95.10
2017-12-11T15:01:12.900Z,95.20
2017-12-11T15:03:40.427Z,94.20
2017-12-11T15:06:07.995Z,94.60
2017-12-11T15:08:35.523Z,94.20
2017-12-11T15:11:03.807Z,94.40
2017-12-11T15:13:32.263Z,94.70
2017-12-11T15:15:59.871Z,94.40
2017-12-11T15:18:27.438Z,94.20
2017-12-11T15:20:55.235Z,94.80
2017-12-11T15:23:22.875Z,94.40
2017-12-11T15:25:51.273Z,94.60
2017-12-11T15:28:18.805Z,94.90
2017-12-11T15:30:47.156Z,94.90
2017-12-11T15:33:15.455Z,95.10
2017-12-11T15:35:42.979Z,95.10
2017-12-11T15:38:10.605Z,95.00
2017-12-11T15:40:38.164Z,95.20
2017-12-11T15:43:05.759Z,95.20
2017-12-11T15:45:33.387Z,95.90
2017-12-11T15:48:01.087Z,95.10
2017-12-11T15:50:28.720Z,94.80
2017-12-11T15:52:56.354Z,95.10
2017-12-11T15:55:26.783Z,95.70
2017-12-11T15:57:54.502Z,95.10
2017-12-11T16:00:22.234Z,95.30
2017-12-11T16:02:49.812Z,95.10
2017-12-11T16:05:17.337Z,94.80
2017-12-11T16:07:44.912Z,95.00
2017-12-11T16:10:12.517Z,94.80
2017-12-11T16:12:40.832Z,95.10
2017-12-11T16:15:08.353Z,95.10
2017-12-11T16:17:35.934Z,95.10
2017-12-11T16:20:03.552Z,95.10
2017-12-11T16:22:31.165Z,94.90
2017-12-11T16:24:59.691Z,94.60
2017-12-11T16:27:27.577Z,94.60
2017-12-11T16:29:55.980Z,94.80
2017-12-11T16:32:24.443Z,94.50
2017-12-11T16:34:52.036Z,94.50
2017-12-11T16:37:19.721Z,94.60
2017-12-11T16:39:47.259Z,94.60
2017-12-11T16:42:14.801Z,94.20
2017-12-11T16:44:42.480Z,94.50
2017-12-11T16:47:10.026Z,94.10
2017-12-11T16:49:39.444Z,94.30
2017-12-11T16:52:06.971Z,94.50
2017-12-11T16:54:34.612Z,94.40
2017-12-11T16:57:02.167Z,94.60
2017-12-11T16:59:29.944Z,94.50
2017-12-11T17:01:57.498Z,94.80
2017-12-11T17:04:25.151Z,95.30
2017-12-11T17:06:52.698Z,94.90
2017-12-11T17:09:21.045Z,95.30
2017-12-11T17:11:49.553Z,95.30
2017-12-11T17:14:17.131Z,95.30
2017-12-11T17:16:45.771Z,94.90
2017-12-11T17:19:13.405Z,94.80
2017-12-11T17:21:42.079Z,94.70
2017-12-11T17:24:09.659Z,94.60
2017-12-11T17:26:37.192Z,94.80
2017-12-11T17:29:05.707Z,94.40
2017-12-11T17:31:33.273Z,94.70
2017-12-11T17:34:01.592Z,94.50
2017-12-11T17:36:29.160Z,95.00
2017-12-11T17:38:57.695Z,94.80
2017-12-11T17:41:26.108Z,94.70
2017-12-11T17:43:53.837Z,94.70
2017-12-11T17:46:21.644Z,95.00
2017-12-11T17:48:50.005Z,94.60
2017-12-11T17:51:17.550Z,94.60
2017-12-11T17:53:46.328Z,93.90
2017-12-11T17:56:14.629Z,94.00
2017-12-11T17:58:47.942Z,94.00
2017-12-11T18:01:17.521Z,93.70
2017-12-11T18:03:45.091Z,94.20
2017-12-11T18:06:12.660Z,93.80
2017-12-11T18:08:41.721Z,94.30
2017-12-11T18:11:10.084Z,94.50
2017-12-11T18:13:38.472Z,94.00
2017-12-11T18:16:07.690Z,93.50
2017-12-11T18:18:36.837Z,93.60
2017-12-11T18:21:05.069Z,93.60
2017-12-11T18:23:33.556Z,93.60
2017-12-11T18:26:01.088Z,93.20
2017-12-11T18:28:29.571Z,93.20
2017-12-11T18:30:57.100Z,92.80
2017-12-11T18:33:24.741Z,92.10
2017-12-11T18:35:53.784Z,92.20
2017-12-11T18:38:21.406Z,92.20
2017-12-11T18:40:48.931Z,93.50
2017-12-11T18:43:17.031Z,92.90
2017-12-11T18:45:45.324Z,92.20
2017-12-11T18:48:13.668Z,91.80
2017-12-11T18:50:41.198Z,91.80
2017-12-11T18:53:10.632Z,92.00
2017-12-11T18:55:39.348Z,91.90
2017-12-11T18:58:06.931Z,92.80
2017-12-11T19:00:35.351Z,92.70
2017-12-11T19:03:03.080Z,92.70
2017-12-11T19:05:30.632Z,92.30
2017-12-11T19:07:59.673Z,91.90
2017-12-11T19:10:27.200Z,91.80
2017-12-11T19:12:55.807Z,92.30
2017-12-11T19:15:25.592Z,91.70
2017-12-11T19:17:53.829Z,91.70
2017-12-11T19:20:21.354Z,91.30
2017-12-11T19:22:48.926Z,91.20
2017-12-11T19:25:16.463Z,92.00
2017-12-11T19:27:44.048Z,91.50
2017-12-11T19:30:11.566Z,90.90
2017-12-11T19:32:41.630Z,90.70
2017-12-11T19:35:09.238Z,90.70
2017-12-11T19:37:36.896Z,90.70
2017-12-11T19:40:05.220Z,90.40
2017-12-11T19:42:33.714Z,90.70
2017-12-11T19:45:01.248Z,90.50
2017-12-11T19:47:28.796Z,90.10
2017-12-11T19:49:57.180Z,89.50
2017-12-11T19:52:26.397Z,89.60
2017-12-11T19:54:55.700Z,88.80
2017-12-11T19:57:23.296Z,88.80
2017-12-11T19:59:52.360Z,87.50
2017-12-11T20:02:19.952Z,87.50
2017-12-11T20:04:47.482Z,88.50
2017-12-11T20:07:15.882Z,87.90
2017-12-11T20:09:43.417Z,86.80
2017-12-11T20:12:11.752Z,85.80
2017-12-11T20:14:40.076Z,85.70
2017-12-11T20:17:07.626Z,85.30
2017-12-11T20:19:37.028Z,87.40
2017-12-11T20:22:04.620Z,86.00
2017-12-11T20:24:32.178Z,89.50
2017-12-11T20:27:00.304Z,86.20
2017-12-11T20:29:29.504Z,85.00
2017-12-11T20:31:57.166Z,84.60
2017-12-11T20:34:24.858Z,85.80
2017-12-11T20:36:53.077Z,85.00
2017-12-11T20:39:21.527Z,84.70
2017-12-11T20:41:49.152Z,82.80
2017-12-11T20:44:16.725Z,82.20
2017-12-11T20:46:45.140Z,83.30
2017-12-11T20:49:13.768Z,82.90
2017-12-11T20:51:41.311Z,82.00
2017-12-11T20:54:08.966Z,82.30
2017-12-11T20:56:36.528Z,82.20
2017-12-11T20:59:05.096Z,81.50
2017-12-11T21:01:32.656Z,80.20
2017-12-11T21:04:00.247Z,80.80
2017-12-11T21:06:27.811Z,81.40
2017-12-11T21:08:55.429Z,79.50
2017-12-11T21:11:22.966Z,82.00
2017-12-11T21:13:51.353Z,80.50
2017-12-11T21:16:18.884Z,80.50
2017-12-11T21:18:46.466Z,79.30
2017-12-11T21:21:14.012Z,78.70
2017-12-11T21:23:41.591Z,78.70
2017-12-11T21:26:11.188Z,77.90
2017-12-11T21:28:39.609Z,77.90
2017-12-11T21:31:08.580Z,77.90
2017-12-11T21:33:37.028Z,76.90
2017-12-11T21:36:04.585Z,77.20
2017-12-11T21:38:32.154Z,76.40
2017-12-11T21:40:59.696Z,76.90
2017-12-11T21:43:28.062Z,76.90
2017-12-11T21:45:55.790Z,76.90
2017-12-11T21:48:23.366Z,74.70
2017-12-11T21:50:50.928Z,76.10
2017-12-11T21:53:18.512Z,76.20
2017-12-11T21:55:46.047Z,75.60
2017-12-11T21:58:15.392Z,76.20
2017-12-11T22:00:50.468Z,75.70
2017-12-11T22:03:20.383Z,75.70
2017-12-11T22:05:48.780Z,76.20
2017-12-11T22:08:17.749Z,76.60
2017-12-11T22:10:50.582Z,76.20
2017-12-11T22:13:21.598Z,76.10
2017-12-11T22:15:52.779Z,74.80
2017-12-11T22:18:34.282Z,74.80
2017-12-11T22:21:05.749Z,75.60
2017-12-11T22:23:44.040Z,75.70
2017-12-11T22:26:13.041Z,75.90
2017-12-11T22:28:42.572Z,74.90
2017-12-11T22:31:14.633Z,74.90
2017-12-11T22:33:47.385Z,74.10
2017-12-11T22:36:16.378Z,74.90
2017-12-11T22:38:48.168Z,74.10
2017-12-11T22:41:16.540Z,74.00
2017-12-11T22:43:46.326Z,73.20
2017-12-11T22:46:15.676Z,73.20
2017-12-11T22:48:45.949Z,72.50
2017-12-11T22:51:15.251Z,72.50
2017-12-11T22:53:45.009Z,72.30
2017-12-11T22:56:14.212Z,72.20
2017-12-11T22:58:42.366Z,72.00
2017-12-11T23:01:11.458Z,72.40
2017-12-11T23:03:41.210Z,72.00
2017-12-11T23:06:12.086Z,71.90
2017-12-11T23:08:41.474Z,72.00
2017-12-11T23:11:11.216Z,71.80
2017-12-11T23:13:41.635Z,72.10
2017-12-11T23:16:21.352Z,72.60
2017-12-11T23:18:50.961Z,72.50
2017-12-11T23:21:20.261Z,72.40
2017-12-11T23:23:48.434Z,73.40
2017-12-11T23:26:19.678Z,73.00
2017-12-11T23:28:49.847Z,73.20
2017-12-11T23:31:22.499Z,73.40
2017-12-11T23:33:53.780Z,74.10
2017-12-11T23:39:10.585Z,73.70
2017-12-11T23:41:49.155Z,74.20
2017-12-11T23:47:01.807Z,74.60
2017-12-11T23:49:45.559Z,74.20
2017-12-11T23:52:19.090Z,74.20
2017-12-11T23:54:52.454Z,74.40
2017-12-11T23:57:33.242Z,75.20
